createdAt,value
2023-05-16T00:01:10.707Z,75.28
2023-05-16T00:03:38.901Z,72.15
2023-05-16T00:06:06.963Z,69.69
2023-05-16T00:08:36.403Z,70.06
2023-05-16T00:11:04.238Z,70.03
2023-05-16T00:13:31.959Z,68.78
2023-05-16T00:16:02.546Z,68.69
2023-05-16T00:18:30.415Z,67.91
2023-05-16T00:20:58.597Z,68.04
2023-05-16T00:23:26.293Z,68.54
2023-05-16T00:25:56.061Z,67.62
2023-05-16T00:28:23.982Z,66.83
2023-05-16T00:30:51.718Z,66.17
2023-05-16T00:33:19.529Z,66.58
2023-05-16T00:35:47.391Z,66.03
2023-05-16T00:38:15.186Z,66.45
2023-05-16T00:40:42.948Z,67.08
2023-05-16T00:43:12.137Z,68.80
2023-05-16T00:45:39.925Z,68.81
2023-05-16T00:48:09.391Z,67.60
2023-05-16T00:50:38.362Z,67.66
2023-05-16T00:53:07.166Z,66.38
2023-05-16T00:55:35.014Z,67.58
2023-05-16T00:58:02.923Z,67.37
2023-05-16T01:00:32.646Z,67.00
2023-05-16T01:03:01.130Z,66.22
2023-05-16T01:05:30.157Z,65.98
2023-05-16T01:07:58.102Z,66.57
2023-05-16T01:10:31.267Z,65.88
2023-05-16T01:13:10.052Z,66.48
2023-05-16T01:15:45.911Z,66.82
2023-05-16T01:18:23.362Z,66.16
2023-05-16T01:20:57.888Z,67.02
2023-05-16T01:23:41.489Z,66.18
2023-05-16T01:26:16.994Z,65.87
2023-05-16T01:28:46.381Z,65.70
2023-05-16T01:31:14.259Z,69.55
2023-05-16T01:33:42.058Z,70.89
2023-05-16T01:36:18.364Z,70.96
2023-05-16T01:38:55.300Z,67.85
2023-05-16T01:41:28.792Z,65.38
2023-05-16T01:44:01.440Z,66.64
2023-05-16T01:46:35.207Z,65.95
2023-05-16T01:49:08.122Z,67.80
2023-05-16T01:51:40.418Z,66.90
2023-05-16T01:54:13.740Z,66.33
2023-05-16T01:56:49.362Z,67.87
2023-05-16T01:59:17.460Z,68.05
2023-05-16T02:01:45.333Z,68.16
2023-05-16T02:04:15.098Z,69.28
2023-05-16T02:06:43.449Z,68.24
2023-05-16T02:09:11.391Z,77.83
2023-05-16T02:11:43.461Z,79.99
2023-05-16T02:14:11.487Z,78.01
2023-05-16T02:16:39.883Z,72.21
2023-05-16T02:19:07.750Z,69.61
2023-05-16T02:21:35.680Z,68.92
2023-05-16T02:24:03.485Z,68.54
2023-05-16T02:26:31.244Z,69.57
2023-05-16T02:29:00.552Z,69.69
2023-05-16T02:31:29.204Z,71.45
2023-05-16T02:33:58.381Z,68.90
2023-05-16T02:36:26.277Z,68.85
2023-05-16T02:38:54.125Z,68.61
2023-05-16T02:41:24.011Z,67.24
2023-05-16T02:43:51.839Z,66.61
2023-05-16T02:46:25.619Z,67.33
2023-05-16T02:48:53.642Z,66.85
2023-05-16T02:51:22.539Z,66.84
2023-05-16T02:53:50.541Z,66.25
2023-05-16T02:56:18.504Z,64.86
2023-05-16T02:58:49.835Z,66.15
2023-05-16T03:01:18.025Z,64.47
2023-05-16T03:03:47.465Z,66.23
2023-05-16T03:06:15.389Z,72.63
2023-05-16T03:08:43.203Z,69.09
2023-05-16T03:11:11.193Z,65.99
2023-05-16T03:13:38.961Z,67.97
2023-05-16T03:16:07.476Z,76.08
2023-05-16T03:18:36.733Z,76.12
2023-05-16T03:21:06.231Z,76.59
2023-05-16T03:23:34.081Z,77.17
2023-05-16T03:26:04.607Z,77.83
2023-05-16T03:28:32.392Z,77.43
2023-05-16T03:31:00.521Z,77.47
2023-05-16T03:33:28.420Z,77.19
2023-05-16T03:35:56.353Z,76.94
2023-05-16T03:38:25.628Z,77.31
2023-05-16T03:40:53.429Z,77.93
2023-05-16T03:43:21.400Z,78.17
2023-05-16T03:45:49.257Z,77.71
2023-05-16T03:48:17.115Z,76.75
2023-05-16T03:50:45.644Z,76.89
2023-05-16T03:53:13.370Z,76.28
2023-05-16T03:55:42.469Z,77.01
2023-05-16T03:58:10.266Z,77.50
2023-05-16T04:00:38.028Z,76.65
2023-05-16T04:03:05.910Z,76.67
2023-05-16T04:05:33.782Z,77.03
2023-05-16T04:08:01.676Z,77.54
2023-05-16T04:10:29.440Z,76.91
2023-05-16T04:12:58.595Z,75.67
2023-05-16T04:15:26.440Z,77.54
2023-05-16T04:17:54.478Z,74.95
2023-05-16T04:20:22.265Z,74.54
2023-05-16T04:22:50.018Z,73.57
2023-05-16T04:25:17.859Z,74.57
2023-05-16T04:27:45.736Z,73.04
2023-05-16T04:30:15.600Z,74.19
2023-05-16T04:32:43.703Z,73.14
2023-05-16T04:35:12.110Z,72.05
2023-05-16T04:37:39.951Z,72.54
2023-05-16T04:40:09.888Z,73.10
2023-05-16T04:42:37.809Z,72.04
2023-05-16T04:45:10.906Z,73.38
2023-05-16T04:47:40.085Z,74.53
2023-05-16T04:50:09.996Z,73.71
2023-05-16T04:52:38.188Z,73.74
2023-05-16T04:55:06.902Z,73.42
2023-05-16T04:57:35.117Z,73.27
2023-05-16T05:00:07.885Z,73.10
2023-05-16T05:02:35.787Z,72.16
2023-05-16T05:05:05.473Z,72.96
2023-05-16T05:07:34.732Z,74.45
2023-05-16T05:10:02.970Z,72.34
2023-05-16T05:12:30.800Z,73.38
2023-05-16T05:14:58.616Z,73.25
2023-05-16T05:17:26.560Z,70.23
2023-05-16T05:19:54.457Z,70.88
2023-05-16T05:22:23.576Z,70.22
2023-05-16T05:24:51.927Z,69.89
2023-05-16T05:27:19.753Z,70.63
2023-05-16T05:29:47.551Z,70.51
2023-05-16T05:32:15.372Z,70.43
2023-05-16T05:34:43.481Z,69.41
2023-05-16T05:37:11.426Z,68.24
2023-05-16T05:39:40.918Z,67.99
2023-05-16T05:42:08.822Z,68.01
2023-05-16T05:44:37.934Z,66.42
2023-05-16T05:47:07.211Z,66.62
2023-05-16T05:49:35.833Z,65.45
2023-05-16T05:52:03.831Z,66.38
2023-05-16T05:54:31.590Z,66.51
2023-05-16T05:57:01.039Z,65.13
2023-05-16T05:59:28.770Z,65.35
2023-05-16T06:01:56.972Z,64.79
2023-05-16T06:04:24.766Z,65.07
2023-05-16T06:06:53.170Z,65.56
2023-05-16T06:09:22.502Z,64.09
2023-05-16T06:11:51.590Z,64.22
2023-05-16T06:14:21.365Z,64.83
2023-05-16T06:16:49.181Z,63.32
2023-05-16T06:19:17.125Z,64.02
2023-05-16T06:21:45.221Z,63.46
2023-05-16T06:24:12.998Z,62.33
2023-05-16T06:26:40.785Z,63.05
2023-05-16T06:29:08.788Z,62.04
2023-05-16T06:31:38.219Z,59.77
2023-05-16T06:34:06.082Z,60.28
2023-05-16T06:36:33.836Z,60.86
2023-05-16T06:39:01.681Z,61.50
2023-05-16T06:41:29.470Z,61.87
2023-05-16T06:43:57.639Z,60.84
2023-05-16T06:46:26.293Z,59.65
2023-05-16T06:48:55.589Z,60.33
2023-05-16T06:51:23.564Z,58.87
2023-05-16T06:53:51.366Z,54.98
2023-05-16T06:56:19.189Z,52.90
2023-05-16T06:58:47.104Z,51.08
2023-05-16T07:01:15.149Z,51.42
2023-05-16T07:03:43.462Z,50.25
2023-05-16T07:06:12.664Z,51.26
2023-05-16T07:08:40.916Z,50.88
2023-05-16T07:11:08.817Z,49.79
2023-05-16T07:13:36.681Z,49.47
2023-05-16T07:16:04.841Z,49.33
2023-05-16T07:18:35.166Z,49.74
2023-05-16T07:21:03.070Z,50.16
2023-05-16T07:23:32.329Z,51.01
2023-05-16T07:26:00.784Z,51.50
2023-05-16T07:28:28.680Z,52.15
2023-05-16T07:30:58.682Z,50.02
2023-05-16T07:33:27.389Z,49.24
2023-05-16T07:36:07.766Z,48.91
2023-05-16T07:38:44.515Z,48.23
2023-05-16T07:41:12.494Z,47.38
2023-05-16T07:43:42.628Z,47.61
2023-05-16T07:46:11.248Z,47.18
2023-05-16T07:48:41.123Z,46.24
2023-05-16T07:51:12.437Z,45.86
2023-05-16T07:53:40.296Z,45.81
2023-05-16T07:56:09.936Z,45.45
2023-05-16T07:58:37.990Z,45.73
2023-05-16T08:01:05.960Z,45.32
2023-05-16T08:03:33.944Z,44.68
2023-05-16T08:06:02.094Z,44.04
2023-05-16T08:08:29.987Z,45.61
2023-05-16T08:10:57.873Z,42.74
2023-05-16T08:13:27.136Z,43.71
2023-05-16T08:15:55.039Z,40.46
2023-05-16T08:18:23.046Z,40.24
2023-05-16T08:20:51.278Z,39.50
2023-05-16T08:23:20.025Z,42.33
2023-05-16T08:25:48.025Z,41.05
2023-05-16T08:28:15.814Z,41.30
2023-05-16T08:30:46.518Z,41.64
2023-05-16T08:33:16.073Z,41.66
2023-05-16T08:35:44.299Z,42.69
2023-05-16T08:38:12.139Z,40.02
2023-05-16T08:40:41.202Z,39.29
2023-05-16T08:43:09.484Z,38.54
2023-05-16T08:45:37.412Z,38.42
2023-05-16T08:48:10.464Z,38.20
2023-05-16T08:50:38.817Z,39.42
2023-05-16T08:53:08.495Z,39.42
2023-05-16T08:55:37.310Z,38.07
2023-05-16T08:58:05.698Z,38.05
2023-05-16T09:00:33.948Z,38.51
2023-05-16T09:03:02.441Z,37.62
2023-05-16T09:05:32.158Z,36.36
2023-05-16T09:08:00.500Z,35.80
2023-05-16T09:10:28.413Z,35.98
2023-05-16T09:12:56.257Z,36.26
2023-05-16T09:15:24.127Z,35.21
2023-05-16T09:17:52.669Z,35.60
2023-05-16T09:20:21.501Z,34.05
2023-05-16T09:22:54.901Z,34.15
2023-05-16T09:27:54.849Z,33.30
2023-05-16T09:30:24.956Z,31.49
2023-05-16T09:32:53.143Z,32.56
2023-05-16T09:35:35.058Z,34.00
2023-05-16T09:38:15.062Z,34.00
2023-05-16T09:40:44.443Z,34.43
2023-05-16T09:43:17.150Z,35.12
2023-05-16T09:45:47.924Z,34.36
2023-05-16T09:48:17.000Z,34.18
2023-05-16T09:50:49.834Z,33.95
2023-05-16T09:53:19.514Z,32.97
2023-05-16T09:55:47.347Z,32.12
2023-05-16T09:58:18.469Z,32.12
2023-05-16T10:00:47.038Z,32.15
2023-05-16T10:03:16.480Z,33.07
2023-05-16T10:05:44.528Z,32.69
2023-05-16T10:08:13.432Z,31.71
2023-05-16T10:10:42.979Z,32.98
2023-05-16T10:13:12.586Z,32.66
2023-05-16T10:15:41.143Z,30.47
2023-05-16T10:18:13.097Z,31.88
2023-05-16T10:20:43.355Z,29.49
2023-05-16T10:23:17.911Z,30.31
2023-05-16T10:25:48.966Z,29.98
2023-05-16T10:28:17.602Z,29.66
2023-05-16T10:30:46.902Z,30.63
2023-05-16T10:33:18.158Z,34.30
2023-05-16T10:35:46.938Z,34.41
2023-05-16T10:38:17.634Z,35.78
2023-05-16T10:40:48.328Z,35.16
2023-05-16T10:43:26.714Z,36.84
2023-05-16T10:45:58.696Z,35.41
2023-05-16T10:48:33.665Z,35.84
2023-05-16T10:51:03.145Z,34.16
2023-05-16T10:53:33.376Z,35.54
2023-05-16T10:56:12.994Z,31.54
2023-05-16T10:58:45.736Z,33.55
2023-05-16T11:01:22.223Z,33.46
2023-05-16T11:04:08.204Z,32.51
2023-05-16T11:06:44.935Z,33.05
2023-05-16T11:09:22.376Z,34.98
2023-05-16T11:11:58.572Z,33.93
2023-05-16T11:14:28.813Z,28.56
2023-05-16T11:17:03.124Z,30.43
2023-05-16T11:19:33.621Z,32.97
2023-05-16T11:22:22.884Z,32.03
2023-05-16T11:24:53.563Z,30.54
2023-05-16T11:27:25.382Z,30.89
2023-05-16T11:29:53.845Z,31.50
2023-05-16T11:32:23.102Z,32.13
2023-05-16T11:34:52.046Z,28.85
2023-05-16T11:37:21.122Z,29.96
2023-05-16T11:39:49.262Z,31.05
2023-05-16T11:42:17.994Z,30.39
2023-05-16T11:44:47.380Z,28.74
2023-05-16T11:47:15.652Z,31.67
2023-05-16T11:49:43.636Z,33.69
2023-05-16T11:52:11.588Z,33.85
2023-05-16T11:54:41.526Z,33.52
2023-05-16T11:57:10.238Z,34.19
2023-05-16T11:59:38.685Z,34.49
2023-05-16T12:02:09.805Z,33.48
2023-05-16T12:04:38.686Z,35.43
2023-05-16T12:07:06.549Z,35.09
2023-05-16T12:09:34.339Z,34.32
2023-05-16T12:12:06.934Z,36.72
2023-05-16T12:14:38.255Z,38.57
2023-05-16T12:17:08.359Z,38.68
2023-05-16T12:19:36.375Z,41.08
2023-05-16T12:22:04.396Z,40.49
2023-05-16T12:24:32.519Z,34.30
2023-05-16T12:27:00.396Z,31.73
2023-05-16T12:29:28.505Z,26.78
2023-05-16T12:31:56.535Z,27.87
2023-05-16T12:34:30.850Z,28.11
2023-05-16T12:37:02.148Z,24.78
2023-05-16T12:39:38.054Z,24.17
2023-05-16T12:42:07.293Z,25.79
2023-05-16T12:44:35.444Z,25.35
2023-05-16T12:47:03.654Z,28.90
2023-05-16T12:49:34.515Z,30.32
2023-05-16T12:52:05.689Z,28.65
2023-05-16T12:54:34.491Z,26.45
2023-05-16T12:57:02.334Z,28.29
2023-05-16T12:59:31.313Z,29.46
2023-05-16T13:01:59.292Z,23.99
2023-05-16T13:04:27.177Z,20.29
2023-05-16T13:06:59.562Z,22.50
2023-05-16T13:09:32.076Z,20.45
2023-05-16T13:12:00.747Z,18.57
2023-05-16T13:14:28.784Z,22.02
2023-05-16T13:16:56.658Z,26.38
2023-05-16T13:19:24.792Z,25.41
2023-05-16T13:21:52.781Z,25.41
2023-05-16T13:24:21.992Z,25.82
2023-05-16T13:26:49.874Z,26.50
2023-05-16T13:29:17.741Z,27.99
2023-05-16T13:31:45.807Z,23.83
2023-05-16T13:34:13.674Z,21.08
2023-05-16T13:36:53.046Z,18.25
2023-05-16T13:39:24.092Z,20.71
2023-05-16T13:41:52.505Z,19.82
2023-05-16T13:44:21.481Z,18.33
2023-05-16T13:46:49.548Z,20.49
2023-05-16T13:49:17.850Z,19.86
2023-05-16T13:51:45.806Z,22.96
2023-05-16T13:54:13.705Z,23.71
2023-05-16T13:56:43.189Z,24.14
2023-05-16T13:59:14.259Z,24.51
2023-05-16T14:01:46.458Z,22.60
2023-05-16T14:04:14.434Z,19.41
2023-05-16T14:06:42.374Z,18.39
2023-05-16T14:09:10.804Z,17.63
2023-05-16T14:11:38.584Z,20.89
2023-05-16T14:14:07.734Z,22.60
2023-05-16T14:16:35.650Z,22.72
2023-05-16T14:19:03.619Z,22.44
2023-05-16T14:21:31.473Z,25.44
2023-05-16T14:23:59.309Z,25.55
2023-05-16T14:26:27.459Z,27.34
2023-05-16T14:28:56.103Z,26.29
2023-05-16T14:31:25.480Z,20.22
2023-05-16T14:33:53.415Z,18.02
2023-05-16T14:36:21.230Z,18.55
2023-05-16T14:38:49.494Z,18.93
2023-05-16T14:41:17.459Z,17.45
2023-05-16T14:43:45.560Z,18.49
2023-05-16T14:46:14.248Z,22.01
2023-05-16T14:48:43.487Z,21.99
2023-05-16T14:51:11.970Z,21.71
2023-05-16T14:53:39.990Z,23.02
2023-05-16T14:56:08.158Z,23.15
2023-05-16T14:58:36.043Z,24.48
2023-05-16T15:01:04.240Z,26.07
2023-05-16T15:03:43.304Z,25.62
2023-05-16T15:06:16.600Z,24.71
2023-05-16T15:08:44.560Z,26.01
2023-05-16T15:11:12.646Z,27.60
2023-05-16T15:13:40.513Z,26.17
2023-05-16T15:16:08.737Z,27.12
2023-05-16T15:18:36.657Z,26.94
2023-05-16T15:21:04.813Z,26.84
2023-05-16T15:23:34.094Z,26.21
2023-05-16T15:26:02.091Z,26.86
2023-05-16T15:28:29.909Z,27.81
2023-05-16T15:30:57.736Z,28.07
2023-05-16T15:33:25.552Z,29.92
2023-05-16T15:35:53.630Z,30.17
2023-05-16T15:38:21.424Z,28.93
2023-05-16T15:40:55.303Z,29.07
2023-05-16T15:43:25.882Z,28.62
2023-05-16T15:45:53.735Z,28.99
2023-05-16T15:48:21.614Z,29.43
2023-05-16T15:50:49.512Z,29.39
2023-05-16T15:53:17.422Z,26.99
2023-05-16T15:55:45.271Z,27.45
2023-05-16T15:58:14.569Z,27.52
2023-05-16T16:00:42.741Z,28.85
2023-05-16T16:03:10.768Z,26.71
2023-05-16T16:05:38.745Z,29.02
2023-05-16T16:08:06.546Z,29.38
2023-05-16T16:10:34.632Z,30.16
2023-05-16T16:13:03.505Z,30.71
2023-05-16T16:15:36.049Z,30.48
2023-05-16T16:18:04.262Z,31.53
2023-05-16T16:20:32.129Z,31.55
2023-05-16T16:23:00.109Z,31.99
2023-05-16T16:25:28.175Z,31.76
2023-05-16T16:27:56.269Z,32.17
2023-05-16T16:30:24.226Z,32.06
2023-05-16T16:32:53.506Z,31.86
2023-05-16T16:35:22.488Z,32.61
2023-05-16T16:38:02.494Z,32.96
2023-05-16T16:40:33.997Z,33.74
2023-05-16T16:43:02.351Z,31.91
2023-05-16T16:45:31.023Z,32.86
2023-05-16T16:48:00.668Z,31.40
2023-05-16T16:50:28.873Z,31.14
2023-05-16T16:52:58.940Z,32.71
2023-05-16T16:55:27.025Z,32.81
2023-05-16T16:57:55.075Z,33.18
2023-05-16T17:00:23.294Z,32.80
2023-05-16T17:02:51.349Z,32.41
2023-05-16T17:05:20.757Z,35.40
2023-05-16T17:07:48.832Z,33.67
2023-05-16T17:10:17.761Z,34.46
2023-05-16T17:12:49.240Z,33.62
2023-05-16T17:15:18.051Z,34.17
2023-05-16T17:17:46.739Z,35.32
2023-05-16T17:20:14.591Z,36.17
2023-05-16T17:22:44.681Z,37.04
2023-05-16T17:25:12.571Z,38.36
2023-05-16T17:27:40.738Z,38.93
2023-05-16T17:30:10.471Z,38.74
2023-05-16T17:32:39.843Z,40.49
2023-05-16T17:35:08.179Z,41.36
2023-05-16T17:37:36.276Z,41.01
2023-05-16T17:40:08.338Z,42.35
2023-05-16T17:42:37.068Z,45.15
2023-05-16T17:45:05.565Z,46.06
2023-05-16T17:47:33.450Z,46.00
2023-05-16T17:50:01.494Z,45.23
2023-05-16T17:52:41.470Z,45.20
2023-05-16T17:55:10.980Z,45.46
2023-05-16T17:57:39.354Z,43.28
2023-05-16T18:00:09.229Z,41.29
2023-05-16T18:02:39.386Z,40.18
2023-05-16T18:05:08.204Z,39.31
2023-05-16T18:07:36.185Z,39.87
2023-05-16T18:10:04.958Z,41.18
2023-05-16T18:12:34.300Z,40.82
2023-05-16T18:15:02.597Z,40.48
2023-05-16T18:17:30.450Z,40.49
2023-05-16T18:19:58.538Z,44.92
2023-05-16T18:22:27.121Z,42.40
2023-05-16T18:24:54.923Z,42.05
2023-05-16T18:27:22.815Z,40.25
2023-05-16T18:29:52.020Z,41.26
2023-05-16T18:32:22.220Z,40.12
2023-05-16T18:34:50.261Z,40.18
2023-05-16T18:37:18.226Z,40.03
2023-05-16T18:39:46.056Z,43.29
2023-05-16T18:42:14.100Z,45.19
2023-05-16T18:44:41.982Z,44.56
2023-05-16T18:47:11.253Z,44.83
2023-05-16T18:49:39.581Z,43.84
2023-05-16T18:52:08.420Z,41.23
2023-05-16T18:54:36.914Z,40.81
2023-05-16T18:57:05.477Z,41.06
2023-05-16T18:59:33.907Z,40.87
2023-05-16T19:02:01.762Z,40.98
2023-05-16T19:04:31.115Z,40.51
2023-05-16T19:07:00.269Z,40.10
2023-05-16T19:09:28.866Z,40.39
2023-05-16T19:11:56.626Z,40.50
2023-05-16T19:14:24.442Z,41.22
2023-05-16T19:16:52.405Z,41.57
2023-05-16T19:19:20.439Z,41.35
2023-05-16T19:21:49.742Z,39.92
2023-05-16T19:24:17.964Z,40.36
2023-05-16T19:26:45.916Z,40.44
2023-05-16T19:29:13.794Z,40.23
2023-05-16T19:31:41.654Z,40.55
2023-05-16T19:34:09.503Z,40.71
2023-05-16T19:36:37.446Z,41.31
2023-05-16T19:39:06.839Z,41.97
2023-05-16T19:41:34.744Z,40.67
2023-05-16T19:44:03.356Z,40.46
2023-05-16T19:46:32.048Z,39.64
2023-05-16T19:49:00.414Z,41.03
2023-05-16T19:51:40.536Z,40.81
2023-05-16T19:54:10.972Z,39.97
2023-05-16T19:56:39.083Z,41.31
2023-05-16T19:59:06.963Z,40.79
2023-05-16T20:01:34.833Z,40.59
2023-05-16T20:04:02.833Z,40.98
2023-05-16T20:06:31.546Z,41.92
2023-05-16T20:08:59.344Z,42.78
2023-05-16T20:11:28.564Z,41.46
2023-05-16T20:13:59.387Z,40.90
2023-05-16T20:16:27.656Z,41.58
2023-05-16T20:18:55.592Z,43.30
2023-05-16T20:21:23.541Z,42.28
2023-05-16T20:23:51.419Z,41.75
2023-05-16T20:26:19.280Z,42.46
2023-05-16T20:28:48.486Z,41.31
2023-05-16T20:31:16.361Z,41.71
2023-05-16T20:33:44.187Z,41.10
2023-05-16T20:36:12.058Z,42.50
2023-05-16T20:38:40.013Z,41.10
2023-05-16T20:41:08.003Z,41.15
2023-05-16T20:43:35.977Z,42.21
2023-05-16T20:46:05.223Z,42.65
2023-05-16T20:48:33.064Z,41.04
2023-05-16T20:51:01.410Z,42.75
2023-05-16T20:53:29.240Z,42.83
2023-05-16T20:55:57.146Z,43.20
2023-05-16T20:58:24.964Z,42.20
2023-05-16T21:00:52.867Z,43.86
2023-05-16T21:03:22.017Z,42.97
2023-05-16T21:05:50.112Z,44.26
2023-05-16T21:08:17.920Z,42.99
2023-05-16T21:10:45.751Z,44.00
2023-05-16T21:13:13.556Z,44.30
2023-05-16T21:15:41.330Z,43.91
2023-05-16T21:18:09.357Z,44.15
2023-05-16T21:20:38.515Z,43.39
2023-05-16T21:23:06.375Z,44.69
2023-05-16T21:25:34.293Z,45.54
2023-05-16T21:28:02.086Z,44.67
2023-05-16T21:30:30.007Z,45.51
2023-05-16T21:32:58.161Z,44.59
2023-05-16T21:35:26.835Z,45.19
2023-05-16T21:37:56.135Z,45.11
2023-05-16T21:40:25.669Z,44.77
2023-05-16T21:42:53.797Z,46.11
2023-05-16T21:45:21.713Z,46.01
2023-05-16T21:47:49.605Z,46.18
2023-05-16T21:50:18.210Z,46.63
2023-05-16T21:52:46.139Z,46.12
2023-05-16T21:55:15.342Z,45.78
2023-05-16T21:57:43.223Z,44.81
2023-05-16T22:00:12.597Z,44.88
2023-05-16T22:02:41.448Z,45.93
2023-05-16T22:05:10.132Z,46.09
2023-05-16T22:07:38.583Z,45.25
2023-05-16T22:10:07.705Z,46.35
2023-05-16T22:12:36.945Z,45.63
2023-05-16T22:15:05.367Z,46.06
2023-05-16T22:17:33.338Z,45.70
2023-05-16T22:20:02.071Z,47.10
2023-05-16T22:22:29.902Z,47.19
2023-05-16T22:24:57.754Z,47.20
2023-05-16T22:27:25.684Z,47.94
2023-05-16T22:29:54.863Z,48.17
2023-05-16T22:32:22.869Z,48.67
2023-05-16T22:34:50.757Z,48.44
2023-05-16T22:37:18.573Z,47.14
2023-05-16T22:39:46.382Z,52.13
2023-05-16T22:42:14.169Z,54.13
2023-05-16T22:44:42.007Z,55.71
2023-05-16T22:47:11.191Z,56.01
2023-05-16T22:49:39.185Z,56.53
2023-05-16T22:52:07.406Z,56.86
2023-05-16T22:54:35.208Z,56.24
2023-05-16T22:57:02.981Z,56.48
2023-05-16T22:59:31.993Z,57.71
2023-05-16T23:02:00.034Z,57.10
2023-05-16T23:04:29.165Z,56.73
2023-05-16T23:06:57.066Z,57.27
2023-05-16T23:09:25.009Z,57.97
2023-05-16T23:11:52.789Z,57.99
2023-05-16T23:14:20.557Z,58.97
2023-05-16T23:16:48.385Z,58.38
2023-05-16T23:19:16.225Z,58.01
2023-05-16T23:21:45.541Z,59.88
2023-05-16T23:24:13.525Z,59.25
2023-05-16T23:26:41.352Z,57.03
2023-05-16T23:29:09.112Z,59.47
2023-05-16T23:31:37.029Z,59.30
2023-05-16T23:34:05.002Z,60.38
2023-05-16T23:36:33.097Z,56.76
2023-05-16T23:39:02.367Z,54.35
2023-05-16T23:41:30.255Z,52.59
2023-05-16T23:43:58.118Z,56.78
2023-05-16T23:46:25.944Z,56.27
2023-05-16T23:48:53.763Z,53.70
2023-05-16T23:51:21.683Z,52.62
2023-05-16T23:53:49.556Z,53.74
2023-05-16T23:56:18.770Z,52.75
2023-05-16T23:58:46.556Z,52.26
